Time;durP1;ratioP1;P1;durP2;ratioP2;P2;SDS_P1;SDS_P2;PMS_P1;PMS_P2;Temp;Humidity;BMP_temperature;BMP_pressure;BME280_temperature;BME280_humidity;BME280_pressure;Samples;Min_cycle;Max_cycle;Signal;HPM_P1;HPM_P2
2021/01/01 00:02:19;;;;;;;189.27;103.97;;;-2.80;94.80;;;;;;5092548;28;20506;-82
2021/01/01 00:04:47;;;;;;;208.93;109.88;;;-2.80;94.40;;;;;;5075190;28;20782;-82
2021/01/01 00:07:14;;;;;;;195.07;103.28;;;-2.80;94.70;;;;;;5076044;28;20398;-82
2021/01/01 00:09:41;;;;;;;191.55;105.68;;;-2.90;94.30;;;;;;5093695;28;20459;-83
2021/01/01 00:12:07;;;;;;;197.85;106.32;;;-2.90;94.30;;;;;;5075256;28;20435;-82
2021/01/01 00:14:34;;;;;;;201.85;108.28;;;-2.90;94.40;;;;;;5094162;28;20430;-83
2021/01/01 00:17:01;;;;;;;203.57;108.97;;;-2.90;94.30;;;;;;5076011;28;20441;-83
2021/01/01 00:19:27;;;;;;;216.85;117.55;;;-2.90;94.20;;;;;;5075669;28;20472;-83
2021/01/01 00:21:55;;;;;;;256.52;142.50;;;-3.00;94.00;;;;;;5093365;28;20451;-83
2021/01/01 00:24:22;;;;;;;275.95;151.13;;;-3.00;94.30;;;;;;5093799;28;20860;-82
2021/01/01 00:26:52;;;;;;;281.58;157.55;;;-3.00;94.60;;;;;;5093345;28;20433;-83
2021/01/01 00:29:18;;;;;;;291.52;160.00;;;-3.00;94.90;;;;;;5093260;28;20455;-82
2021/01/01 00:31:47;;;;;;;285.48;159.63;;;-3.00;95.00;;;;;;5075666;28;20437;-83
2021/01/01 00:34:16;;;;;;;268.05;149.85;;;-3.00;94.90;;;;;;5093369;28;20570;-82
2021/01/01 00:36:43;;;;;;;260.27;145.35;;;-2.90;94.80;;;;;;5075426;28;20390;-83
2021/01/01 00:39:10;;;;;;;251.57;139.57;;;-3.00;94.40;;;;;;5093272;28;20408;-82
2021/01/01 00:41:37;;;;;;;247.75;136.45;;;-3.00;94.60;;;;;;5093182;28;20413;-82
2021/01/01 00:44:04;;;;;;;232.18;130.35;;;-3.00;94.60;;;;;;5093371;28;20443;-82
2021/01/01 00:46:32;;;;;;;210.20;116.15;;;-3.00;94.50;;;;;;5074868;28;21154;-82
2021/01/01 00:49:02;;;;;;;217.50;114.13;;;-3.00;94.50;;;;;;5093031;28;20433;-82
2021/01/01 00:51:30;;;;;;;198.75;108.50;;;-3.00;94.60;;;;;;5075204;28;20506;-82
2021/01/01 00:54:00;;;;;;;196.02;110.95;;;-3.20;94.40;;;;;;5075354;28;20386;-82
2021/01/01 00:56:29;;;;;;;181.43;100.07;;;-3.10;94.70;;;;;;5075027;28;20398;-83
2021/01/01 00:58:57;;;;;;;168.45;92.90;;;-3.10;94.80;;;;;;5093288;28;20749;-82
2021/01/01 01:01:26;;;;;;;179.98;101.45;;;-3.10;94.70;;;;;;5074633;28;20422;-82
2021/01/01 01:03:55;;;;;;;169.98;97.15;;;-3.10;94.60;;;;;;5074995;28;20413;-82
2021/01/01 01:06:23;;;;;;;166.70;94.57;;;-3.20;94.50;;;;;;5075313;28;20387;-82
2021/01/01 01:08:50;;;;;;;171.15;95.57;;;-3.20;94.40;;;;;;5075064;28;20418;-82
2021/01/01 01:11:28;;;;;;;172.73;96.50;;;-3.20;94.20;;;;;;5074874;28;20402;-82
2021/01/01 01:13:56;;;;;;;161.82;93.05;;;-3.20;94.40;;;;;;5086291;28;20402;-83
2021/01/01 01:16:27;;;;;;;160.20;91.97;;;-3.30;94.40;;;;;;5092229;28;20431;-83
2021/01/01 01:18:54;;;;;;;147.48;86.18;;;-3.30;94.50;;;;;;5074664;28;20451;-82
2021/01/01 01:21:22;;;;;;;143.70;83.15;;;-3.30;95.00;;;;;;5074452;28;20413;-82
2021/01/01 01:23:53;;;;;;;144.43;83.37;;;-3.20;94.90;;;;;;5074638;28;20401;-82
2021/01/01 01:26:21;;;;;;;147.88;82.15;;;-3.20;94.70;;;;;;5087176;28;20565;-82
2021/01/01 01:28:48;;;;;;;140.80;80.20;;;-3.20;94.60;;;;;;5074269;28;20426;-81
2021/01/01 01:31:15;;;;;;;136.43;73.68;;;-3.30;94.50;;;;;;5092323;28;20398;-82
2021/01/01 01:33:48;;;;;;;124.13;68.40;;;-3.30;94.70;;;;;;5092148;28;20783;-82
2021/01/01 01:36:18;;;;;;;123.03;67.10;;;-3.30;94.80;;;;;;5074975;28;20756;-82
2021/01/01 01:38:44;;;;;;;116.47;65.28;;;-3.30;95.00;;;;;;5074508;28;20744;-82
2021/01/01 01:41:13;;;;;;;116.05;62.35;;;-3.30;95.10;;;;;;5074753;28;20447;-82
2021/01/01 01:43:40;;;;;;;109.93;62.37;;;-3.20;95.00;;;;;;5074460;28;21095;-82
2021/01/01 01:46:06;;;;;;;107.30;59.60;;;-3.30;94.70;;;;;;5074698;28;20390;-82
2021/01/01 01:48:36;;;;;;;105.13;57.85;;;-3.30;94.40;;;;;;5092509;28;20421;-82
2021/01/01 01:51:08;;;;;;;103.53;57.47;;;-3.30;94.40;;;;;;5086546;28;20454;-82
2021/01/01 01:53:46;;;;;;;98.77;54.33;;;-3.30;94.50;;;;;;5058550;28;20422;-82
2021/01/01 01:56:14;;;;;;;96.53;52.13;;;-3.40;94.20;;;;;;5074564;28;20489;-82
2021/01/01 01:58:41;;;;;;;90.65;50.90;;;-3.40;93.80;;;;;;5092315;28;20941;-82
2021/01/01 02:01:13;;;;;;;89.75;51.00;;;-3.30;93.90;;;;;;5074601;28;20735;-82
2021/01/01 02:03:42;;;;;;;86.88;49.42;;;-3.30;93.90;;;;;;5091612;28;20418;-82
2021/01/01 02:06:09;;;;;;;83.82;48.15;;;-3.30;93.90;;;;;;5091147;28;20471;-81
2021/01/01 02:08:36;;;;;;;83.43;47.13;;;-3.30;93.80;;;;;;5073442;28;20536;-82
2021/01/01 02:11:05;;;;;;;82.73;48.27;;;-3.40;94.00;;;;;;5074267;28;20799;-81
2021/01/01 02:13:32;;;;;;;90.80;51.22;;;-3.50;94.20;;;;;;5089801;28;20404;-81
2021/01/01 02:15:59;;;;;;;88.85;49.53;;;-3.50;94.60;;;;;;5112681;28;20384;-81
2021/01/01 02:18:43;;;;;;;89.70;50.80;;;-3.50;94.30;;;;;;5112669;28;20392;-82
2021/01/01 02:21:16;;;;;;;87.43;48.50;;;-3.50;94.40;;;;;;5094225;28;20405;-82
2021/01/01 02:23:44;;;;;;;85.03;48.57;;;-3.50;94.20;;;;;;5112125;28;20396;-81
2021/01/01 02:26:11;;;;;;;84.38;48.08;;;-3.50;94.10;;;;;;5094595;28;20392;-82
2021/01/01 02:28:38;;;;;;;86.25;47.65;;;-3.50;94.40;;;;;;5094169;28;20407;-82
2021/01/01 02:31:08;;;;;;;75.95;42.67;;;-3.60;94.40;;;;;;5112423;28;20397;-82
2021/01/01 02:33:35;;;;;;;74.13;41.42;;;-3.60;93.90;;;;;;5093494;28;20412;-81
2021/01/01 02:36:01;;;;;;;75.63;40.27;;;-3.50;93.50;;;;;;5093788;28;20433;-82
2021/01/01 02:38:28;;;;;;;72.38;41.65;;;-3.50;93.60;;;;;;5094254;28;20458;-82
2021/01/01 02:40:56;;;;;;;68.80;39.17;;;-3.50;93.40;;;;;;5094311;28;20758;-81
2021/01/01 02:43:22;;;;;;;67.20;38.15;;;-3.50;93.40;;;;;;5094574;28;20869;-81
2021/01/01 02:45:51;;;;;;;63.47;37.13;;;-3.50;93.40;;;;;;5111706;28;20401;-81
2021/01/01 02:48:20;;;;;;;66.47;38.23;;;-3.60;93.20;;;;;;5112197;28;20421;-81
2021/01/01 02:50:54;;;;;;;69.75;38.67;;;-3.60;93.40;;;;;;5094644;28;20442;-81
2021/01/01 02:53:21;;;;;;;69.17;39.10;;;-3.60;93.60;;;;;;5065899;28;20424;-81
2021/01/01 02:55:48;;;;;;;71.88;42.30;;;-3.60;93.80;;;;;;5071835;28;20388;-82
2021/01/01 02:58:15;;;;;;;69.85;40.00;;;-3.60;94.20;;;;;;5071276;28;20445;-82
2021/01/01 03:00:46;;;;;;;69.47;40.28;;;-3.60;94.20;;;;;;5071750;28;20392;-82
2021/01/01 03:03:13;;;;;;;68.93;40.47;;;-3.70;94.20;;;;;;5071491;28;20754;-82
2021/01/01 03:05:39;;;;;;;67.75;39.08;;;-3.70;94.30;;;;;;5053870;28;20399;-82
2021/01/01 03:08:08;;;;;;;66.80;38.70;;;-3.70;94.40;;;;;;5053711;28;20476;-82
2021/01/01 03:10:37;;;;;;;74.93;42.00;;;-3.80;94.30;;;;;;5053546;28;20392;-82
2021/01/01 03:13:05;;;;;;;75.23;41.80;;;-3.70;94.20;;;;;;5071475;28;20388;-82
2021/01/01 03:15:31;;;;;;;70.47;41.15;;;-3.70;94.20;;;;;;5053560;28;20408;-82
2021/01/01 03:17:58;;;;;;;70.40;41.53;;;-3.70;94.20;;;;;;5054893;28;20395;-82
2021/01/01 03:20:24;;;;;;;69.35;39.13;;;-3.70;94.10;;;;;;5074959;28;20403;-82
2021/01/01 03:22:53;;;;;;;68.70;37.60;;;-3.80;94.40;;;;;;5074761;28;20466;-82
2021/01/01 03:25:20;;;;;;;60.53;34.38;;;-3.70;94.60;;;;;;5057141;28;20807;-82
2021/01/01 03:27:46;;;;;;;60.05;33.63;;;-3.80;94.50;;;;;;5056750;28;20501;-82
2021/01/01 03:30:13;;;;;;;52.78;31.63;;;-3.80;94.60;;;;;;5056394;28;20464;-82
2021/01/01 03:32:42;;;;;;;46.72;27.30;;;-3.90;94.70;;;;;;5056678;28;20950;-82
2021/01/01 03:35:11;;;;;;;42.70;24.55;;;-3.90;94.70;;;;;;5074413;28;20415;-82
2021/01/01 03:37:38;;;;;;;44.50;26.10;;;-3.90;94.50;;;;;;5056703;28;20452;-82
2021/01/01 03:40:05;;;;;;;44.78;25.98;;;-3.80;94.70;;;;;;5074389;28;20392;-82
2021/01/01 03:42:33;;;;;;;45.42;26.65;;;-3.80;94.20;;;;;;5056864;28;20439;-82
2021/01/01 03:44:59;;;;;;;47.55;27.55;;;-3.80;94.00;;;;;;5056723;28;20411;-82
2021/01/01 03:47:26;;;;;;;48.47;28.23;;;-3.80;94.00;;;;;;5074400;28;20411;-82
2021/01/01 03:49:52;;;;;;;49.58;27.85;;;-3.80;93.90;;;;;;5074318;28;20486;-82
2021/01/01 03:52:19;;;;;;;47.03;25.83;;;-3.80;94.00;;;;;;5056537;28;20861;-82
2021/01/01 03:54:45;;;;;;;44.80;26.23;;;-3.90;94.00;;;;;;5056408;28;20440;-81
2021/01/01 03:57:12;;;;;;;42.07;25.27;;;-3.90;94.00;;;;;;5055576;28;20812;-82
2021/01/01 03:59:38;;;;;;;45.70;24.92;;;-3.80;94.00;;;;;;5056766;28;20400;-81
2021/01/01 04:02:05;;;;;;;41.50;25.13;;;-3.90;93.90;;;;;;5073628;28;20412;-82
2021/01/01 04:04:33;;;;;;;39.53;24.07;;;-3.80;93.60;;;;;;5073858;28;20474;-82
2021/01/01 04:06:59;;;;;;;45.53;25.45;;;-3.90;93.50;;;;;;5056756;28;20403;-82
2021/01/01 04:09:26;;;;;;;46.22;26.20;;;-3.90;93.60;;;;;;5055811;28;20836;-82
2021/01/01 04:11:52;;;;;;;46.65;26.98;;;-4.00;93.50;;;;;;5074266;28;20773;-82
2021/01/01 04:14:19;;;;;;;45.97;26.83;;;-4.00;93.60;;;;;;5074099;28;20392;-82
2021/01/01 04:16:46;;;;;;;51.17;28.40;;;-4.10;93.40;;;;;;5072483;28;20404;-82
2021/01/01 04:19:12;;;;;;;63.53;35.60;;;-4.00;93.70;;;;;;5074135;28;20395;-82
2021/01/01 04:21:47;;;;;;;55.95;32.90;;;-4.10;94.00;;;;;;5055781;28;20738;-82
2021/01/01 04:24:15;;;;;;;55.95;32.53;;;-4.10;94.00;;;;;;5073416;28;21207;-81
2021/01/01 04:26:42;;;;;;;51.63;31.10;;;-4.10;94.10;;;;;;5055778;28;20400;-82
2021/01/01 04:29:09;;;;;;;53.15;31.08;;;-4.10;93.90;;;;;;5054784;28;20428;-82
2021/01/01 04:31:37;;;;;;;60.50;32.70;;;-4.20;93.80;;;;;;5055597;28;20805;-81
2021/01/01 04:34:05;;;;;;;52.00;31.10;;;-4.10;93.90;;;;;;5073685;28;20854;-81
2021/01/01 04:36:32;;;;;;;58.20;33.67;;;-4.10;93.70;;;;;;5083844;28;20406;-82
2021/01/01 04:38:59;;;;;;;54.15;32.90;;;-4.20;93.80;;;;;;5075752;28;20431;-82
2021/01/01 04:41:26;;;;;;;55.28;33.72;;;-4.20;93.70;;;;;;5075602;28;20398;-82
2021/01/01 04:43:55;;;;;;;58.27;33.60;;;-4.20;93.60;;;;;;5076009;28;20736;-82
2021/01/01 04:46:22;;;;;;;57.45;33.03;;;-4.20;93.50;;;;;;5075468;28;20414;-82
2021/01/01 04:48:49;;;;;;;55.53;32.53;;;-4.30;93.60;;;;;;5075538;28;20418;-82
2021/01/01 04:51:17;;;;;;;57.17;33.55;;;-4.30;93.30;;;;;;5075594;28;20413;-82
2021/01/01 04:53:46;;;;;;;62.33;35.15;;;-4.20;93.50;;;;;;5075126;28;20406;-82
2021/01/01 04:56:13;;;;;;;62.17;36.42;;;-4.20;93.90;;;;;;5093172;28;20445;-82
2021/01/01 04:58:40;;;;;;;63.08;36.55;;;-4.20;94.20;;;;;;5092923;28;20398;-82
2021/01/01 05:01:06;;;;;;;57.65;33.13;;;-4.30;94.50;;;;;;5092717;28;20883;-82
2021/01/01 05:03:33;;;;;;;55.85;31.90;;;-4.30;94.50;;;;;;5092805;28;20510;-82
2021/01/01 05:06:00;;;;;;;56.40;31.85;;;-4.30;94.20;;;;;;5092594;28;20795;-82
2021/01/01 05:08:27;;;;;;;56.10;31.10;;;-4.30;94.20;;;;;;5074980;28;20471;-82
2021/01/01 05:10:53;;;;;;;53.73;31.30;;;-4.30;93.70;;;;;;5074904;28;20486;-82
2021/01/01 05:13:21;;;;;;;50.85;30.33;;;-4.30;93.70;;;;;;5092266;28;20472;-82
2021/01/01 05:15:50;;;;;;;53.83;30.70;;;-4.30;93.40;;;;;;5093291;28;20390;-81
2021/01/01 05:18:27;;;;;;;50.20;29.80;;;-4.30;93.30;;;;;;5074183;28;20470;-82
2021/01/01 05:20:56;;;;;;;52.53;30.27;;;-4.40;93.40;;;;;;5074554;28;20807;-82
2021/01/01 05:23:27;;;;;;;58.77;33.13;;;-4.40;93.80;;;;;;5092786;28;20398;-82
2021/01/01 05:26:08;;;;;;;55.72;31.33;;;-4.40;94.30;;;;;;5093001;28;20722;-82
2021/01/01 05:28:50;;;;;;;54.58;31.42;;;-4.40;94.40;;;;;;5074483;28;20829;-82
2021/01/01 05:31:22;;;;;;;48.28;30.23;;;-4.40;94.30;;;;;;5068828;28;20463;-81
2021/01/01 05:33:56;;;;;;;49.63;28.67;;;-4.30;94.10;;;;;;5074965;28;20397;-81
2021/01/01 05:36:59;;;;;;;54.35;31.33;;;-4.20;93.90;;;;;;5074859;28;20430;-82
2021/01/01 05:39:27;;;;;;;52.00;30.33;;;-4.30;94.20;;;;;;5079910;28;20418;-81
2021/01/01 05:41:56;;;;;;;54.03;30.08;;;-4.30;94.50;;;;;;5074220;28;20404;-81
2021/01/01 05:44:28;;;;;;;52.55;30.98;;;-4.30;94.10;;;;;;5074380;28;20815;-81
2021/01/01 05:47:06;;;;;;;50.07;29.37;;;-4.40;94.20;;;;;;5074389;28;20441;-82
2021/01/01 05:49:41;;;;;;;50.70;29.45;;;-4.40;94.20;;;;;;5088830;28;21048;-81
2021/01/01 05:52:28;;;;;;;46.27;28.23;;;-4.40;94.20;;;;;;5074973;28;20941;-82
2021/01/01 05:55:00;;;;;;;52.60;29.80;;;-4.50;94.50;;;;;;5091956;28;20884;-81
2021/01/01 05:57:37;;;;;;;53.28;31.08;;;-4.50;94.60;;;;;;5091939;28;20410;-81
2021/01/01 06:00:08;;;;;;;59.80;33.97;;;-4.50;94.80;;;;;;5071044;28;20455;-82
2021/01/01 06:02:42;;;;;;;65.22;33.33;;;-4.50;94.80;;;;;;5073906;28;20433;-81
2021/01/01 06:05:10;;;;;;;52.20;29.48;;;-4.40;94.50;;;;;;5088701;28;20406;-81
2021/01/01 06:07:41;;;;;;;49.88;29.23;;;-4.50;94.70;;;;;;5073927;28;20429;-82
2021/01/01 06:10:10;;;;;;;53.17;30.47;;;-4.50;94.20;;;;;;5073666;28;20450;-82
2021/01/01 06:12:39;;;;;;;53.30;31.17;;;-4.60;94.10;;;;;;5074271;28;20398;-81
2021/01/01 06:15:08;;;;;;;55.22;30.67;;;-4.60;94.20;;;;;;5074449;28;20429;-81
2021/01/01 06:17:39;;;;;;;57.15;31.83;;;-4.60;94.20;;;;;;5092318;28;20544;-81
2021/01/01 06:20:07;;;;;;;51.97;28.90;;;-4.60;94.50;;;;;;5074343;28;20394;-82
2021/01/01 06:22:37;;;;;;;51.80;28.40;;;-4.60;94.40;;;;;;5073824;28;20437;-82
2021/01/01 06:25:04;;;;;;;47.97;27.83;;;-4.50;94.10;;;;;;5073379;28;20911;-81
2021/01/01 06:27:32;;;;;;;48.88;27.73;;;-4.50;93.90;;;;;;5091803;28;20394;-81
2021/01/01 06:30:09;;;;;;;53.53;28.80;;;-4.50;93.80;;;;;;5074050;28;20414;-81
2021/01/01 06:32:36;;;;;;;51.30;27.85;;;-4.50;93.90;;;;;;5091549;28;20394;-81
2021/01/01 06:35:12;;;;;;;50.47;27.33;;;-4.50;94.00;;;;;;5069689;28;20509;-82
2021/01/01 06:37:41;;;;;;;52.20;27.03;;;-4.50;94.00;;;;;;5091967;28;20398;-81
2021/01/01 06:40:32;;;;;;;46.45;25.65;;;-4.40;94.00;;;;;;5074185;28;20402;-81
2021/01/01 06:43:02;;;;;;;46.80;26.38;;;-4.40;93.70;;;;;;5073699;28;20402;-81
2021/01/01 06:45:41;;;;;;;48.28;27.48;;;-4.40;93.80;;;;;;5092095;28;20896;-81
2021/01/01 06:48:09;;;;;;;49.03;28.10;;;-4.30;93.80;;;;;;5091262;28;20488;-81
2021/01/01 06:50:42;;;;;;;50.25;26.73;;;-4.40;93.90;;;;;;5091787;28;20426;-81
2021/01/01 06:53:09;;;;;;;51.70;28.23;;;-4.40;93.70;;;;;;5075872;28;20393;-81
2021/01/01 06:55:38;;;;;;;49.45;27.90;;;-4.40;94.00;;;;;;5077288;28;20444;-81
2021/01/01 06:58:05;;;;;;;49.67;26.80;;;-4.40;94.10;;;;;;5066702;28;20409;-81
2021/01/01 07:00:50;;;;;;;47.95;27.10;;;-4.40;94.10;;;;;;5046507;28;20467;-81
2021/01/01 07:03:26;;;;;;;49.47;27.30;;;-4.30;94.10;;;;;;5073069;28;20431;-81
2021/01/01 07:05:54;;;;;;;49.60;26.70;;;-4.30;94.60;;;;;;5057697;28;20391;-81
2021/01/01 07:08:39;;;;;;;46.15;25.02;;;-4.20;94.40;;;;;;5057741;28;20415;-81
2021/01/01 07:11:25;;;;;;;45.60;25.33;;;-4.30;94.00;;;;;;5057543;28;20424;-81
2021/01/01 07:14:01;;;;;;;47.72;26.13;;;-4.20;94.00;;;;;;5056667;28;20483;-81
2021/01/01 07:16:40;;;;;;;49.95;27.52;;;-4.20;93.90;;;;;;5064258;28;20835;-80
2021/01/01 07:19:09;;;;;;;48.63;27.85;;;-4.30;94.10;;;;;;5095304;28;20764;-81
2021/01/01 07:21:38;;;;;;;53.97;30.95;;;-4.20;94.20;;;;;;5094691;28;20448;-81
2021/01/01 07:24:06;;;;;;;52.13;29.38;;;-4.20;94.40;;;;;;5076442;28;20815;-81
2021/01/01 07:26:32;;;;;;;49.72;27.65;;;-4.20;94.40;;;;;;5094753;28;20434;-81
2021/01/01 07:29:01;;;;;;;51.58;29.58;;;-4.20;94.40;;;;;;5094769;28;20453;-81
2021/01/01 07:31:28;;;;;;;49.17;29.08;;;-4.30;94.60;;;;;;5094774;28;20493;-81
2021/01/01 07:34:05;;;;;;;57.72;32.17;;;-4.20;94.60;;;;;;5094539;28;20421;-81
2021/01/01 07:36:33;;;;;;;58.33;31.17;;;-4.10;94.50;;;;;;5094808;28;20475;-81
2021/01/01 07:39:03;;;;;;;57.33;32.27;;;-4.10;94.50;;;;;;5077248;28;20394;-81
2021/01/01 07:41:30;;;;;;;60.73;32.07;;;-4.10;94.60;;;;;;5076971;28;20410;-81
2021/01/01 07:43:56;;;;;;;68.35;36.08;;;-4.10;94.40;;;;;;5093708;28;20437;-81
2021/01/01 07:46:23;;;;;;;60.92;33.45;;;-4.00;94.40;;;;;;5076541;28;20436;-81
2021/01/01 07:48:53;;;;;;;53.20;29.97;;;-3.90;94.30;;;;;;5076728;28;21189;-81
2021/01/01 07:51:20;;;;;;;56.80;29.63;;;-3.80;94.20;;;;;;5094670;28;20444;-81
2021/01/01 07:53:47;;;;;;;51.00;27.47;;;-3.70;94.10;;;;;;5081748;28;20764;-81
2021/01/01 07:56:14;;;;;;;59.53;31.73;;;-3.70;94.00;;;;;;5094340;28;20455;-81
2021/01/01 07:58:42;;;;;;;57.22;30.30;;;-3.60;94.10;;;;;;5094497;28;20522;-81
2021/01/01 08:01:11;;;;;;;54.15;28.65;;;-3.50;94.10;;;;;;5093913;28;20756;-81
2021/01/01 08:03:39;;;;;;;54.20;28.33;;;-3.50;93.90;;;;;;5093343;28;20434;-81
2021/01/01 08:06:10;;;;;;;65.38;32.22;;;-3.40;93.90;;;;;;5085654;28;20485;-81
2021/01/01 08:08:37;;;;;;;65.32;32.90;;;-3.40;94.00;;;;;;5093984;28;20422;-81
2021/01/01 08:11:06;;;;;;;69.10;34.22;;;-3.40;94.00;;;;;;5076165;28;20776;-81
2021/01/01 08:13:34;;;;;;;161.98;74.65;;;-3.30;93.70;;;;;;5075896;28;20410;-81
2021/01/01 08:16:11;;;;;;;122.70;59.22;;;-3.20;93.70;;;;;;5075775;28;20479;-81
2021/01/01 08:18:39;;;;;;;81.32;40.90;;;-3.20;93.50;;;;;;5076387;28;20872;-81
2021/01/01 08:21:06;;;;;;;72.00;38.90;;;-3.10;93.70;;;;;;5093563;28;20514;-81
2021/01/01 08:24:09;;;;;;;68.07;37.50;;;-3.10;93.70;;;;;;5075506;28;20510;-81
2021/01/01 08:26:40;;;;;;;66.97;36.92;;;-3.00;93.70;;;;;;4974460;28;20489;-81
2021/01/01 08:29:14;;;;;;;74.30;40.37;;;-2.90;93.30;;;;;;5068291;28;20429;-81
2021/01/01 08:31:43;;;;;;;89.95;47.60;;;-2.80;93.50;;;;;;5076116;28;20451;-81
2021/01/01 08:34:10;;;;;;;89.82;49.22;;;-2.70;93.40;;;;;;5075623;28;20390;-81
2021/01/01 08:36:37;;;;;;;80.95;44.95;;;-2.60;93.40;;;;;;5093969;28;20386;-81
2021/01/01 08:39:12;;;;;;;86.93;45.90;;;-2.60;93.20;;;;;;5075160;28;20406;-81
2021/01/01 08:41:48;;;;;;;79.88;43.38;;;-2.50;93.00;;;;;;5075134;28;20455;-81
2021/01/01 08:44:19;;;;;;;62.67;36.63;;;-2.40;92.80;;;;;;5075691;28;20389;-81
2021/01/01 08:46:45;;;;;;;61.90;36.92;;;-2.30;93.00;;;;;;5074721;28;20467;-81
2021/01/01 08:49:23;;;;;;;63.20;37.42;;;-2.20;92.90;;;;;;5075337;28;20562;-82
2021/01/01 08:51:50;;;;;;;66.25;38.40;;;-2.10;92.90;;;;;;5093021;28;20429;-82
2021/01/01 08:54:36;;;;;;;58.13;35.03;;;-2.00;93.00;;;;;;5078135;28;20480;-81
2021/01/01 08:57:03;;;;;;;57.92;32.80;;;-1.90;92.50;;;;;;5088565;28;20475;-82
2021/01/01 08:59:31;;;;;;;58.15;33.10;;;-1.80;92.80;;;;;;5059984;28;20420;-83
2021/01/01 09:01:59;;;;;;;65.28;37.58;;;-1.90;92.60;;;;;;5088691;28;20402;-83
2021/01/01 09:04:27;;;;;;;73.38;40.85;;;-1.90;92.60;;;;;;5092638;28;20772;-83
2021/01/01 09:06:55;;;;;;;72.68;41.88;;;-1.90;92.60;;;;;;5074697;28;20421;-83
2021/01/01 09:09:30;;;;;;;70.90;40.88;;;-1.70;92.90;;;;;;5073808;28;20421;-83
2021/01/01 09:12:16;;;;;;;62.78;38.13;;;-1.60;92.60;;;;;;5074520;28;20405;-83
2021/01/01 09:14:54;;;;;;;56.08;33.60;;;-1.40;91.90;;;;;;5074415;28;21165;-83
2021/01/01 09:17:22;;;;;;;60.63;35.28;;;-1.40;92.00;;;;;;5074895;28;20499;-83
2021/01/01 09:20:14;;;;;;;56.07;33.57;;;-1.50;92.10;;;;;;5074984;28;20915;-82
2021/01/01 09:22:41;;;;;;;56.05;33.78;;;-1.50;92.50;;;;;;5058948;28;20405;-83
2021/01/01 09:25:24;;;;;;;54.17;32.40;;;-1.40;92.70;;;;;;5074316;28;20406;-83
2021/01/01 09:27:55;;;;;;;51.53;32.20;;;-1.40;92.60;;;;;;5073625;28;20398;-84
2021/01/01 09:30:25;;;;;;;53.70;32.83;;;-1.30;92.10;;;;;;5092153;28;20422;-84
2021/01/01 09:32:57;;;;;;;56.47;33.13;;;-1.20;92.60;;;;;;5074918;28;20491;-84
2021/01/01 09:35:26;;;;;;;55.33;33.70;;;-1.10;92.60;;;;;;5074733;28;20814;-83
2021/01/01 09:38:02;;;;;;;55.10;33.03;;;-1.00;92.50;;;;;;5074899;28;20402;-83
2021/01/01 09:40:31;;;;;;;51.83;32.35;;;-0.80;92.20;;;;;;5073044;28;20501;-82
2021/01/01 09:43:05;;;;;;;52.05;31.30;;;-0.50;91.90;;;;;;5074339;28;20401;-82
2021/01/01 09:45:35;;;;;;;47.58;30.02;;;-0.30;91.50;;;;;;5086524;28;20976;-82
2021/01/01 09:48:04;;;;;;;47.92;30.08;;;-0.20;90.60;;;;;;5092167;28;20386;-81
2021/01/01 09:50:30;;;;;;;49.20;31.33;;;-0.20;90.60;;;;;;5066309;28;20891;-82
2021/01/01 09:52:57;;;;;;;48.20;31.52;;;-0.10;90.70;;;;;;5091051;28;20451;-82
2021/01/01 09:55:23;;;;;;;47.28;30.08;;;0.00;91.00;;;;;;5093693;28;20405;-82
2021/01/01 09:57:51;;;;;;;48.30;30.65;;;0.00;90.70;;;;;;5112651;28;20441;-82
2021/01/01 10:00:19;;;;;;;46.90;30.40;;;0.00;90.20;;;;;;5094358;28;20896;-82
2021/01/01 10:02:46;;;;;;;48.90;30.73;;;0.10;90.60;;;;;;5112072;28;20886;-82
2021/01/01 10:05:12;;;;;;;48.80;29.58;;;0.30;90.70;;;;;;5112700;28;20474;-82
2021/01/01 10:07:39;;;;;;;43.42;27.77;;;0.50;90.30;;;;;;5093728;28;20404;-80
2021/01/01 10:10:07;;;;;;;46.95;28.65;;;0.70;89.90;;;;;;5070178;28;20428;-82
2021/01/01 10:12:34;;;;;;;44.85;29.05;;;0.70;89.30;;;;;;5092365;28;20413;-83
2021/01/01 10:15:03;;;;;;;48.40;29.48;;;0.80;88.80;;;;;;5092327;28;20396;-81
2021/01/01 10:17:30;;;;;;;41.42;27.25;;;0.90;88.40;;;;;;5073966;28;20406;-82
2021/01/01 10:19:57;;;;;;;42.95;27.98;;;1.00;87.40;;;;;;5073270;28;20436;-83
2021/01/01 10:22:24;;;;;;;46.28;28.67;;;1.00;87.30;;;;;;5073905;28;20478;-83
2021/01/01 10:24:53;;;;;;;43.97;28.38;;;1.00;87.50;;;;;;5092212;28;20390;-83
2021/01/01 10:27:19;;;;;;;45.20;28.20;;;1.00;87.80;;;;;;5073769;28;20479;-83
2021/01/01 10:29:46;;;;;;;43.27;27.80;;;1.00;87.60;;;;;;5069424;28;20898;-83
2021/01/01 10:32:13;;;;;;;46.38;28.70;;;1.00;87.90;;;;;;5095397;28;20956;-83
2021/01/01 10:34:41;;;;;;;44.28;28.65;;;1.00;88.30;;;;;;5078171;28;20410;-82
2021/01/01 10:37:09;;;;;;;41.40;26.88;;;1.20;88.60;;;;;;5078131;28;20398;-83
2021/01/01 10:39:39;;;;;;;37.38;23.83;;;2.00;87.20;;;;;;5095956;28;20394;-83
2021/01/01 10:42:06;;;;;;;36.47;23.13;;;3.20;82.80;;;;;;5078103;28;20406;-83
2021/01/01 10:44:53;;;;;;;35.88;22.23;;;4.30;79.30;;;;;;5096081;28;20406;-83
2021/01/01 10:47:20;;;;;;;30.88;20.40;;;5.20;74.40;;;;;;5095175;28;20518;-83
2021/01/01 10:49:49;;;;;;;30.65;19.70;;;5.90;69.40;;;;;;5077425;28;20942;-83
2021/01/01 10:52:18;;;;;;;30.73;21.70;;;6.50;68.20;;;;;;5095480;28;20390;-83
2021/01/01 10:54:47;;;;;;;28.80;19.23;;;6.80;66.60;;;;;;5076772;28;20425;-84
2021/01/01 10:57:16;;;;;;;28.47;18.67;;;7.20;64.40;;;;;;5095319;28;21213;-83
2021/01/01 10:59:42;;;;;;;28.60;18.00;;;7.30;63.70;;;;;;5076926;28;21067;-83
2021/01/01 11:02:09;;;;;;;25.00;18.13;;;7.70;63.10;;;;;;5095291;28;20410;-83
2021/01/01 11:04:35;;;;;;;30.70;20.98;;;7.80;61.50;;;;;;5094393;28;20472;-83
2021/01/01 11:07:03;;;;;;;33.63;23.27;;;7.70;62.50;;;;;;5094781;28;20493;-83
2021/01/01 11:09:29;;;;;;;35.40;24.02;;;7.50;63.30;;;;;;5076588;28;20418;-83
2021/01/01 11:11:57;;;;;;;36.75;23.35;;;7.30;63.60;;;;;;5094700;28;20471;-83
2021/01/01 12:21:53;;;;;;;25.20;16.60;;;9.20;54.70;;;;;;5065056;28;20414;-82
2021/01/01 12:24:27;;;;;;;25.35;17.20;;;9.20;54.30;;;;;;5092486;28;20974;-84
2021/01/01 12:26:54;;;;;;;26.13;17.42;;;9.20;54.50;;;;;;5093887;28;20398;-84
2021/01/01 12:29:24;;;;;;;25.77;17.00;;;9.00;54.90;;;;;;5093014;28;20745;-84
2021/01/01 12:31:54;;;;;;;26.73;18.50;;;8.80;56.40;;;;;;5093146;28;20409;-85
2021/01/01 12:34:20;;;;;;;33.22;22.80;;;8.50;56.70;;;;;;5075760;28;20468;-85
2021/01/01 12:36:47;;;;;;;29.13;20.52;;;8.60;56.70;;;;;;5075900;28;20401;-85
2021/01/01 12:39:18;;;;;;;28.65;18.38;;;8.50;56.20;;;;;;5093348;28;20822;-85
2021/01/01 12:41:49;;;;;;;28.48;18.50;;;8.50;56.00;;;;;;5075798;28;20406;-85
2021/01/01 12:44:16;;;;;;;25.27;17.70;;;8.80;56.60;;;;;;5093454;28;20402;-84
2021/01/01 12:46:42;;;;;;;28.48;18.80;;;8.70;55.00;;;;;;5093631;28;20409;-85
2021/01/01 12:49:09;;;;;;;29.42;20.05;;;8.10;57.20;;;;;;5093505;28;20394;-84
2021/01/01 12:51:35;;;;;;;33.55;22.48;;;7.00;60.30;;;;;;5075380;28;20447;-84
2021/01/01 12:54:02;;;;;;;31.33;21.48;;;6.40;63.40;;;;;;5075566;28;20530;-83
2021/01/01 12:56:28;;;;;;;31.75;21.80;;;5.90;64.90;;;;;;5093798;28;20386;-83
2021/01/01 12:58:55;;;;;;;32.97;21.33;;;6.10;65.80;;;;;;5075270;28;20452;-83
2021/01/01 13:01:24;;;;;;;31.45;20.83;;;6.20;64.60;;;;;;5093306;28;20416;-84
2021/01/01 13:03:51;;;;;;;32.33;20.65;;;6.00;65.00;;;;;;5074914;28;20502;-83
2021/01/01 13:06:20;;;;;;;32.73;21.30;;;6.40;64.40;;;;;;5093252;28;20394;-83
2021/01/01 13:08:47;;;;;;;31.13;21.05;;;6.50;63.80;;;;;;5092832;28;20922;-83
2021/01/01 13:11:14;;;;;;;31.93;21.30;;;6.80;63.00;;;;;;5092546;28;20776;-83
2021/01/01 13:13:40;;;;;;;32.13;20.90;;;7.20;61.80;;;;;;5075073;28;20433;-83
2021/01/01 13:16:07;;;;;;;32.13;21.27;;;7.50;60.70;;;;;;5092891;28;20414;-83
2021/01/01 13:18:36;;;;;;;30.52;20.23;;;7.50;59.70;;;;;;5092946;28;20433;-83
2021/01/01 13:21:06;;;;;;;31.63;19.45;;;7.30;59.70;;;;;;5083257;28;20426;-84
2021/01/01 13:23:39;;;;;;;29.80;19.92;;;7.00;60.60;;;;;;5105334;28;21214;-83
2021/01/01 13:26:09;;;;;;;29.58;19.67;;;6.70;61.70;;;;;;5113439;28;20400;-84
2021/01/01 13:28:36;;;;;;;30.60;20.45;;;6.80;62.20;;;;;;5095199;28;20750;-83
2021/01/01 13:31:03;;;;;;;27.85;19.38;;;6.80;62.70;;;;;;5095353;28;20820;-83
2021/01/01 13:33:42;;;;;;;27.98;20.15;;;7.20;61.60;;;;;;5112556;28;20947;-83
2021/01/01 13:36:21;;;;;;;27.23;19.50;;;7.50;60.40;;;;;;5094832;28;20416;-83
2021/01/01 13:38:47;;;;;;;29.77;19.85;;;7.90;59.90;;;;;;5094988;28;20863;-83
2021/01/01 13:41:14;;;;;;;30.08;19.75;;;8.00;59.30;;;;;;5112595;28;20416;-84
2021/01/01 13:43:42;;;;;;;30.13;20.05;;;8.00;58.70;;;;;;5094968;28;20449;-83
2021/01/01 13:46:18;;;;;;;29.73;19.85;;;8.00;59.00;;;;;;5094276;28;20432;-84